Time;durP1;ratioP1;P1;durP2;ratioP2;P2;SDS_P1;SDS_P2;PMS_P1;PMS_P2;Temp;Humidity;BMP_temperature;BMP_pressure;BME280_temperature;BME280_humidity;BME280_pressure;Samples;Min_cycle;Max_cycle;Signal;HPM_P1;HPM_P2
2022/11/21 00:01:11;;;;;;;21.05;13.73;;;3.00;99.90;;;;;;4917788;29;20062;-86
2022/11/21 00:03:37;;;;;;;20.92;13.63;;;3.00;99.90;;;;;;4916375;29;20059;-86
2022/11/21 00:06:03;;;;;;;19.35;13.00;;;3.00;99.90;;;;;;4917740;29;20048;-86
2022/11/21 00:08:29;;;;;;;20.33;13.65;;;3.00;99.90;;;;;;4915991;29;20047;-86
2022/11/21 00:10:58;;;;;;;20.00;13.25;;;3.00;99.90;;;;;;4917713;29;20396;-86
2022/11/21 00:13:24;;;;;;;20.25;13.40;;;3.00;99.90;;;;;;4916550;29;20036;-86
2022/11/21 00:15:49;;;;;;;18.63;12.85;;;3.00;99.90;;;;;;4918083;29;20480;-85
2022/11/21 00:18:15;;;;;;;20.48;13.48;;;3.00;99.90;;;;;;4915283;29;20130;-85
2022/11/21 00:20:42;;;;;;;23.30;13.30;;;3.00;99.90;;;;;;4917957;29;20048;-86
2022/11/21 00:23:08;;;;;;;18.42;12.88;;;3.00;99.90;;;;;;4916533;29;20040;-86
2022/11/21 00:25:34;;;;;;;18.83;12.88;;;3.00;99.90;;;;;;4915940;29;20044;-85
2022/11/21 00:27:59;;;;;;;19.67;13.57;;;3.00;99.90;;;;;;4900679;29;20052;-86
2022/11/21 00:30:25;;;;;;;20.33;13.05;;;3.00;99.90;;;;;;4917348;29;20052;-85
2022/11/21 00:32:51;;;;;;;20.88;13.45;;;3.00;99.90;;;;;;4915756;29;20484;-85
2022/11/21 00:35:16;;;;;;;20.23;13.27;;;3.00;99.90;;;;;;4916022;29;20504;-85
2022/11/21 00:37:42;;;;;;;19.65;13.48;;;3.00;99.90;;;;;;4915645;29;20054;-86
2022/11/21 00:40:08;;;;;;;18.98;13.30;;;3.00;99.90;;;;;;4915287;29;20052;-85
2022/11/21 00:42:34;;;;;;;19.67;13.45;;;3.00;99.90;;;;;;4916246;29;20052;-85
2022/11/21 00:44:59;;;;;;;20.77;13.68;;;3.10;99.90;;;;;;4915413;29;20051;-85
2022/11/21 00:47:25;;;;;;;19.27;13.48;;;3.10;99.90;;;;;;4915958;29;20055;-86
2022/11/21 00:49:50;;;;;;;19.90;13.43;;;3.10;99.90;;;;;;4915611;29;20452;-85
2022/11/21 00:52:16;;;;;;;18.80;13.00;;;3.10;99.90;;;;;;4916269;29;20051;-85
2022/11/21 00:54:42;;;;;;;19.67;13.88;;;3.10;99.90;;;;;;4916869;29;20399;-85
2022/11/21 00:57:08;;;;;;;19.88;12.95;;;3.10;99.90;;;;;;4914894;29;20055;-86
2022/11/21 00:59:33;;;;;;;20.15;13.43;;;3.10;99.90;;;;;;4915088;29;20032;-85
2022/11/21 01:01:59;;;;;;;18.23;12.85;;;3.10;99.90;;;;;;4915499;29;20104;-85
2022/11/21 01:04:25;;;;;;;20.60;13.27;;;3.00;99.90;;;;;;4916907;29;20616;-85
2022/11/21 01:06:50;;;;;;;19.80;13.50;;;3.00;99.90;;;;;;4915393;29;20068;-85
2022/11/21 01:09:16;;;;;;;19.67;12.80;;;3.00;99.90;;;;;;4916134;29;20139;-85
2022/11/21 01:11:41;;;;;;;20.35;13.85;;;3.00;99.90;;;;;;4915569;29;20044;-85
2022/11/21 01:14:07;;;;;;;18.05;12.82;;;3.00;99.90;;;;;;4914833;29;20048;-85
2022/11/21 01:16:33;;;;;;;19.35;12.23;;;3.00;99.90;;;;;;4916798;29;20052;-85
2022/11/21 01:18:59;;;;;;;19.52;12.98;;;3.00;99.90;;;;;;4917094;29;20036;-85
2022/11/21 01:21:28;;;;;;;20.55;13.43;;;3.00;99.90;;;;;;4914535;29;20465;-84
2022/11/21 01:23:54;;;;;;;18.80;12.52;;;3.00;99.90;;;;;;4905554;29;20048;-84
2022/11/21 01:26:25;;;;;;;19.00;12.75;;;3.00;99.90;;;;;;4915187;29;20067;-84
2022/11/21 01:28:51;;;;;;;18.33;12.07;;;3.00;99.90;;;;;;4915548;29;20044;-85
2022/11/21 01:31:18;;;;;;;18.75;12.90;;;2.90;99.90;;;;;;4916310;29;20055;-85
2022/11/21 01:33:45;;;;;;;18.85;12.20;;;2.90;99.90;;;;;;4915131;29;20106;-85
2022/11/21 01:36:11;;;;;;;22.35;13.73;;;2.90;99.90;;;;;;4916049;29;20044;-85
2022/11/21 01:38:39;;;;;;;18.27;12.73;;;2.90;99.90;;;;;;4915194;29;20040;-85
2022/11/21 01:41:05;;;;;;;19.00;12.95;;;2.90;99.90;;;;;;4914408;29;20059;-85
2022/11/21 01:43:31;;;;;;;20.85;12.95;;;2.90;99.90;;;;;;4916572;29;20048;-85
2022/11/21 01:46:07;;;;;;;18.85;12.90;;;2.80;99.90;;;;;;4917393;29;20051;-85
2022/11/21 01:49:01;;;;;;;19.75;13.00;;;2.80;99.90;;;;;;4916090;29;20410;-85
2022/11/21 01:51:50;;;;;;;18.08;12.30;;;2.80;99.90;;;;;;4914759;29;20048;-85
2022/11/21 01:54:25;;;;;;;19.65;13.10;;;2.80;99.90;;;;;;4902689;29;20047;-84
2022/11/21 01:57:25;;;;;;;17.63;12.20;;;2.80;99.90;;;;;;4902098;29;20492;-85
2022/11/21 02:00:07;;;;;;;19.23;12.73;;;2.80;99.90;;;;;;4915540;29;20056;-85
2022/11/21 02:02:42;;;;;;;19.38;12.63;;;2.70;99.90;;;;;;4914317;29;20048;-85
2022/11/21 02:05:12;;;;;;;20.00;13.48;;;2.70;99.90;;;;;;4916623;29;20041;-85
2022/11/21 02:07:41;;;;;;;19.63;12.98;;;2.80;99.90;;;;;;4915073;29;20105;-85
2022/11/21 02:10:08;;;;;;;18.13;12.45;;;2.70;99.90;;;;;;4914236;29;20580;-85
2022/11/21 02:12:49;;;;;;;20.63;13.35;;;2.70;99.90;;;;;;4914890;29;20040;-85
2022/11/21 02:15:17;;;;;;;19.05;12.82;;;2.70;99.90;;;;;;4916427;29;20564;-85
2022/11/21 02:17:42;;;;;;;17.33;12.45;;;2.70;99.90;;;;;;4914662;29;20044;-85
2022/11/21 02:20:17;;;;;;;19.27;12.90;;;2.70;99.90;;;;;;4914570;29;20092;-85
2022/11/21 02:23:04;;;;;;;20.55;12.80;;;2.60;99.90;;;;;;4914818;29;20052;-85
2022/11/21 02:25:33;;;;;;;19.17;12.90;;;2.60;99.90;;;;;;4914799;29;20130;-85
2022/11/21 02:28:01;;;;;;;19.65;13.32;;;2.60;99.90;;;;;;4915953;29;20052;-85
2022/11/21 02:30:33;;;;;;;19.95;12.77;;;2.60;99.90;;;;;;4915560;29;20519;-85
2022/11/21 02:32:59;;;;;;;18.67;13.00;;;2.60;99.90;;;;;;4916085;29;20534;-85
2022/11/21 02:35:25;;;;;;;18.65;12.90;;;2.60;99.90;;;;;;4915941;29;20033;-85
2022/11/21 02:37:57;;;;;;;20.20;13.13;;;2.60;99.90;;;;;;4915522;29;20119;-85
2022/11/21 02:40:26;;;;;;;20.38;13.38;;;2.50;99.90;;;;;;4915008;29;20100;-85
2022/11/21 02:43:22;;;;;;;18.85;13.18;;;2.50;99.90;;;;;;4914881;29;20084;-84
2022/11/21 02:45:47;;;;;;;20.45;12.98;;;2.50;99.90;;;;;;4913030;29;20078;-86
2022/11/21 02:48:13;;;;;;;17.52;12.98;;;2.50;99.90;;;;;;4913801;29;20560;-85
2022/11/21 02:50:41;;;;;;;18.10;12.85;;;2.40;99.90;;;;;;4915678;29;20373;-84
2022/11/21 02:53:10;;;;;;;18.52;13.13;;;2.40;99.90;;;;;;4915230;29;20048;-85
2022/11/21 02:55:37;;;;;;;19.58;13.60;;;2.40;99.90;;;;;;4914404;29;20080;-85
2022/11/21 02:58:03;;;;;;;21.38;13.30;;;2.40;99.90;;;;;;4914499;29;20056;-85
2022/11/21 03:00:29;;;;;;;20.00;14.00;;;2.40;99.90;;;;;;4913929;29;20127;-85
2022/11/21 03:02:55;;;;;;;19.40;13.25;;;2.40;99.90;;;;;;4915338;29;20151;-85
2022/11/21 03:05:21;;;;;;;19.52;13.50;;;2.40;99.90;;;;;;4913703;29;20463;-85
2022/11/21 03:07:47;;;;;;;20.70;13.85;;;2.30;99.90;;;;;;4918058;29;20052;-85
2022/11/21 03:10:13;;;;;;;17.88;12.02;;;2.30;99.90;;;;;;4918381;29;20414;-84
2022/11/21 03:12:40;;;;;;;20.00;13.55;;;2.30;99.90;;;;;;4918905;29;20103;-85
2022/11/21 03:15:08;;;;;;;21.00;13.52;;;2.20;99.90;;;;;;4917891;29;20393;-84
2022/11/21 03:17:34;;;;;;;20.90;12.70;;;2.20;99.90;;;;;;4918432;29;20131;-85
2022/11/21 03:20:00;;;;;;;19.77;12.80;;;2.20;99.90;;;;;;4918108;29;20131;-85
2022/11/21 03:22:25;;;;;;;18.88;13.40;;;2.10;99.90;;;;;;4917483;29;20138;-85
2022/11/21 03:24:51;;;;;;;18.48;13.15;;;2.10;99.90;;;;;;4919092;29;20056;-85
2022/11/21 03:27:17;;;;;;;19.67;13.00;;;2.10;99.90;;;;;;4918400;29;20051;-85
2022/11/21 03:29:43;;;;;;;17.23;12.13;;;2.10;99.90;;;;;;4919279;29;20045;-85
2022/11/21 03:32:08;;;;;;;18.88;12.90;;;2.00;99.90;;;;;;4917174;29;20046;-85
2022/11/21 03:34:34;;;;;;;20.10;12.40;;;2.00;99.90;;;;;;4916921;29;20048;-85
2022/11/21 03:37:00;;;;;;;17.70;12.57;;;2.00;99.90;;;;;;4918845;29;20515;-85
2022/11/21 03:39:26;;;;;;;18.33;12.75;;;1.90;99.90;;;;;;4917198;29;20052;-85
2022/11/21 03:41:52;;;;;;;19.13;13.18;;;1.90;99.90;;;;;;4916848;29;20177;-85
2022/11/21 03:44:17;;;;;;;19.63;12.50;;;1.90;99.90;;;;;;4917458;29;20127;-84
2022/11/21 03:46:44;;;;;;;20.48;13.23;;;1.90;99.90;;;;;;4917438;29;20485;-84
2022/11/21 03:49:11;;;;;;;21.55;14.20;;;1.90;99.90;;;;;;4916542;29;20048;-85
2022/11/21 03:51:37;;;;;;;20.02;13.13;;;1.80;99.90;;;;;;4918017;29;20560;-84
2022/11/21 03:54:03;;;;;;;18.80;13.02;;;1.80;99.90;;;;;;4919113;29;20051;-85
2022/11/21 03:56:30;;;;;;;17.75;12.40;;;1.80;99.90;;;;;;4916603;29;20468;-84
2022/11/21 03:58:56;;;;;;;20.20;13.20;;;1.70;99.90;;;;;;4916161;29;20055;-85
2022/11/21 04:01:22;;;;;;;19.00;12.38;;;1.70;99.90;;;;;;4916485;29;20122;-85
2022/11/21 04:03:49;;;;;;;20.23;13.10;;;1.70;99.90;;;;;;4916233;29;20040;-85
2022/11/21 04:06:16;;;;;;;19.60;13.13;;;1.70;99.90;;;;;;4917231;29;20048;-85
2022/11/21 04:08:43;;;;;;;21.27;13.35;;;1.70;99.90;;;;;;4916486;29;20080;-85
2022/11/21 04:11:08;;;;;;;17.73;12.13;;;1.70;99.90;;;;;;4916663;29;20047;-85
2022/11/21 04:13:34;;;;;;;18.38;12.55;;;1.60;99.90;;;;;;4916818;29;20119;-85
2022/11/21 04:16:00;;;;;;;19.80;13.25;;;1.60;99.90;;;;;;4916949;29;20365;-85
2022/11/21 04:18:25;;;;;;;19.17;12.82;;;1.60;99.90;;;;;;4916243;29;20475;-84
2022/11/21 04:20:58;;;;;;;18.63;13.13;;;1.50;99.90;;;;;;4917796;29;20503;-84
2022/11/21 04:23:25;;;;;;;18.77;11.90;;;1.50;99.90;;;;;;4915586;29;20044;-85
2022/11/21 04:25:51;;;;;;;20.25;13.25;;;1.50;99.90;;;;;;4916208;29;20076;-85
2022/11/21 04:28:16;;;;;;;20.13;12.95;;;1.50;99.90;;;;;;4917401;29;20040;-85
2022/11/21 04:30:42;;;;;;;17.83;12.77;;;1.50;99.90;;;;;;4917170;29;20048;-85
2022/11/21 04:33:08;;;;;;;18.55;12.63;;;1.50;99.90;;;;;;4915920;29;20043;-85
2022/11/21 04:35:34;;;;;;;19.92;13.05;;;1.50;99.90;;;;;;4917048;29;20056;-85
2022/11/21 04:37:59;;;;;;;18.70;12.25;;;1.40;99.90;;;;;;4916916;29;20051;-84
2022/11/21 04:40:25;;;;;;;20.27;13.02;;;1.50;99.90;;;;;;4917473;29;20139;-84
2022/11/21 04:42:50;;;;;;;18.02;12.45;;;1.50;99.90;;;;;;4916230;29;20051;-85
2022/11/21 04:45:16;;;;;;;18.17;12.65;;;1.50;99.90;;;;;;4915182;29;20127;-85
2022/11/21 04:47:44;;;;;;;19.48;13.13;;;1.40;99.90;;;;;;4916346;29;20037;-85
2022/11/21 04:50:12;;;;;;;19.73;12.75;;;1.40;99.90;;;;;;4915591;29;20044;-85
2022/11/21 04:52:38;;;;;;;18.67;12.75;;;1.40;99.90;;;;;;4915996;29;20057;-85
2022/11/21 04:55:04;;;;;;;20.70;13.15;;;1.40;99.90;;;;;;4916638;29;20035;-84
2022/11/21 04:57:31;;;;;;;17.58;12.23;;;1.40;99.90;;;;;;4915587;29;20056;-83
2022/11/21 04:59:56;;;;;;;18.30;12.20;;;1.40;99.90;;;;;;4914752;29;20477;-84
2022/11/21 05:02:22;;;;;;;18.17;11.77;;;1.40;99.90;;;;;;4915279;29;20056;-84
2022/11/21 05:04:48;;;;;;;17.85;12.18;;;1.30;99.90;;;;;;4915530;29;20044;-84
2022/11/21 05:07:14;;;;;;;20.73;12.77;;;1.30;99.90;;;;;;4916105;29;20095;-84
2022/11/21 05:09:40;;;;;;;19.92;12.70;;;1.30;99.90;;;;;;4917212;29;20059;-84
2022/11/21 05:14:52;;;;;;;20.40;12.90;;;1.30;99.90;;;;;;4915591;29;20052;-84
2022/11/21 05:17:17;;;;;;;17.65;11.85;;;1.30;99.90;;;;;;4915755;29;20131;-88
2022/11/21 05:19:43;;;;;;;20.13;12.77;;;1.30;99.90;;;;;;4915456;29;20051;-87
2022/11/21 05:22:08;;;;;;;18.70;12.65;;;1.30;99.90;;;;;;4915768;29;20044;-87
2022/11/21 05:24:34;;;;;;;19.65;13.50;;;1.20;99.90;;;;;;4916599;29;20047;-88
2022/11/21 05:27:00;;;;;;;18.90;12.60;;;1.20;99.90;;;;;;4917040;29;20070;-89
2022/11/21 05:29:25;;;;;;;19.10;12.65;;;1.20;99.90;;;;;;4915623;29;20044;-85
2022/11/21 05:31:51;;;;;;;17.55;12.40;;;1.20;99.90;;;;;;4917222;29;20086;-87
2022/11/21 05:34:19;;;;;;;19.95;12.13;;;1.20;99.90;;;;;;4916429;29;20049;-88
2022/11/21 05:36:45;;;;;;;18.70;11.85;;;1.20;99.90;;;;;;4916993;29;20040;-90
2022/11/21 05:39:11;;;;;;;19.30;12.75;;;1.20;99.90;;;;;;4916972;29;20075;-90
2022/11/21 05:41:36;;;;;;;18.30;12.95;;;1.20;99.90;;;;;;4915950;29;20047;-91
2022/11/21 05:44:02;;;;;;;18.70;11.52;;;1.20;99.90;;;;;;4915503;29;20068;-85
2022/11/21 05:46:27;;;;;;;20.45;13.20;;;1.10;99.90;;;;;;4916197;29;20052;-92
2022/11/21 05:48:54;;;;;;;19.27;12.73;;;1.10;99.90;;;;;;4916806;29;20044;-82
2022/11/21 05:51:20;;;;;;;21.35;13.35;;;1.10;99.90;;;;;;4915388;29;20420;-83
2022/11/21 05:53:46;;;;;;;19.98;13.70;;;1.10;99.90;;;;;;4917263;29;20044;-83
2022/11/21 05:56:14;;;;;;;20.30;13.63;;;1.10;99.90;;;;;;4914924;29;20052;-83
2022/11/21 05:58:40;;;;;;;21.65;13.95;;;1.00;99.90;;;;;;4915655;29;20107;-84
2022/11/21 06:01:08;;;;;;;20.30;12.93;;;1.00;99.90;;;;;;4916451;29;20040;-83
2022/11/21 06:03:36;;;;;;;20.45;13.85;;;1.00;99.90;;;;;;4916090;29;20377;-83
2022/11/21 06:06:13;;;;;;;22.45;13.27;;;1.00;99.90;;;;;;4916057;29;20068;-83
2022/11/21 06:08:41;;;;;;;21.73;13.52;;;1.00;99.90;;;;;;4916251;29;20044;-83
2022/11/21 06:11:09;;;;;;;22.75;14.10;;;1.00;99.90;;;;;;4916882;29;20044;-82
2022/11/21 06:13:36;;;;;;;21.20;13.35;;;1.00;99.90;;;;;;4917032;29;20045;-83
2022/11/21 06:16:15;;;;;;;21.15;14.32;;;1.00;99.90;;;;;;4914970;29;20067;-83
2022/11/21 06:18:43;;;;;;;21.17;14.25;;;1.00;99.90;;;;;;4916465;29;20056;-83
2022/11/21 06:21:16;;;;;;;20.75;14.82;;;1.00;99.90;;;;;;4916536;29;20048;-83
2022/11/21 06:23:42;;;;;;;21.85;13.55;;;1.00;99.90;;;;;;4915170;29;20075;-83
2022/11/21 06:26:11;;;;;;;23.38;15.25;;;1.00;99.90;;;;;;4914972;29;20456;-83
2022/11/21 06:28:39;;;;;;;22.45;14.60;;;1.00;99.90;;;;;;4916798;29;20036;-83
2022/11/21 06:31:05;;;;;;;20.25;14.27;;;1.00;99.90;;;;;;4916080;29;20052;-83
2022/11/21 06:33:32;;;;;;;23.40;14.90;;;1.00;99.90;;;;;;4915912;29;20534;-83
2022/11/21 06:36:00;;;;;;;24.23;15.02;;;1.00;99.90;;;;;;4916548;29;20455;-83
2022/11/21 06:38:26;;;;;;;24.63;15.27;;;1.10;99.90;;;;;;4914491;29;20111;-83
2022/11/21 06:40:52;;;;;;;20.98;14.07;;;1.10;99.90;;;;;;4932885;29;20128;-83
2022/11/21 06:43:17;;;;;;;22.58;15.27;;;1.10;99.90;;;;;;4917882;29;20063;-83
2022/11/21 06:45:43;;;;;;;22.90;15.15;;;1.10;99.90;;;;;;4918904;29;20048;-83
2022/11/21 06:48:08;;;;;;;23.38;15.48;;;1.10;99.90;;;;;;4918010;29;20044;-83
2022/11/21 06:50:34;;;;;;;22.73;15.57;;;1.10;99.90;;;;;;4918146;29;20063;-83
2022/11/21 06:53:00;;;;;;;22.23;14.98;;;1.10;99.90;;;;;;4918846;29;20507;-83
2022/11/21 06:55:27;;;;;;;22.65;15.52;;;1.10;99.90;;;;;;4919299;29;20144;-83
2022/11/21 06:57:56;;;;;;;24.17;15.57;;;1.10;99.90;;;;;;4919494;29;20056;-83
2022/11/21 07:00:23;;;;;;;23.83;15.48;;;1.10;99.90;;;;;;4919833;29;20428;-83
2022/11/21 07:02:49;;;;;;;24.25;15.25;;;1.10;99.90;;;;;;4919618;29;20056;-83
2022/11/21 07:05:14;;;;;;;22.38;15.23;;;1.10;99.90;;;;;;4917172;29;20125;-83
2022/11/21 07:07:40;;;;;;;24.80;15.98;;;1.10;99.90;;;;;;4919781;29;20055;-83
2022/11/21 07:10:06;;;;;;;23.35;15.93;;;1.10;99.90;;;;;;4918096;29;20055;-83
2022/11/21 07:15:17;;;;;;;23.92;15.63;;;1.10;99.90;;;;;;4900670;29;20502;-83
2022/11/21 07:17:43;;;;;;;24.10;16.10;;;1.00;99.90;;;;;;4900755;29;20084;-84
2022/11/21 07:20:09;;;;;;;24.05;15.95;;;1.00;99.90;;;;;;4899958;29;20037;-84
2022/11/21 07:22:35;;;;;;;23.05;15.85;;;1.00;99.90;;;;;;4899160;29;20049;-82
2022/11/21 07:25:01;;;;;;;27.45;17.25;;;0.90;99.90;;;;;;4916813;29;20040;-85
2022/11/21 07:27:26;;;;;;;24.60;16.90;;;0.90;99.90;;;;;;4917146;29;20055;-85
2022/11/21 07:29:52;;;;;;;23.95;16.00;;;0.90;99.90;;;;;;4918340;29;20381;-84
2022/11/21 07:32:17;;;;;;;24.40;16.05;;;0.90;99.90;;;;;;4917753;29;20048;-83
2022/11/21 07:34:43;;;;;;;22.50;15.75;;;0.90;99.90;;;;;;4918781;29;20096;-84
2022/11/21 07:37:09;;;;;;;24.88;15.77;;;0.80;99.90;;;;;;4918575;29;20399;-85
2022/11/21 07:39:34;;;;;;;23.80;15.77;;;0.80;99.90;;;;;;4917893;29;20055;-83
2022/11/21 07:42:00;;;;;;;23.00;15.48;;;0.80;99.90;;;;;;4917837;29;20510;-84
2022/11/21 07:44:26;;;;;;;24.33;16.63;;;0.80;99.90;;;;;;4919128;29;20055;-84
2022/11/21 07:46:55;;;;;;;23.73;15.38;;;0.80;99.90;;;;;;4919408;29;20163;-84
2022/11/21 07:49:21;;;;;;;26.90;16.77;;;0.80;99.90;;;;;;4917311;29;20476;-84
2022/11/21 07:51:46;;;;;;;24.58;16.30;;;0.70;99.90;;;;;;4917159;29;20044;-84
2022/11/21 07:54:12;;;;;;;23.45;15.63;;;0.80;99.90;;;;;;4916879;29;20066;-84
2022/11/21 07:56:38;;;;;;;23.40;15.70;;;0.80;99.90;;;;;;4918123;29;20052;-84
2022/11/21 07:59:03;;;;;;;24.27;16.20;;;0.80;99.90;;;;;;4918820;29;20047;-84
2022/11/21 08:01:29;;;;;;;24.15;16.63;;;0.70;99.90;;;;;;4917750;29;21391;-84
2022/11/21 08:03:55;;;;;;;23.10;15.10;;;0.70;99.90;;;;;;4918683;29;20040;-84
2022/11/21 08:06:23;;;;;;;24.20;16.33;;;0.70;99.90;;;;;;4918246;29;20054;-84
2022/11/21 08:08:52;;;;;;;24.25;16.15;;;0.70;99.90;;;;;;4916731;29;20052;-84
2022/11/21 08:11:18;;;;;;;23.73;15.85;;;0.70;99.90;;;;;;4917068;29;20048;-83
2022/11/21 08:13:44;;;;;;;22.30;15.77;;;0.60;99.90;;;;;;4918825;29;20047;-85
2022/11/21 08:16:09;;;;;;;23.40;15.60;;;0.60;99.90;;;;;;4917774;29;20456;-83
2022/11/21 08:18:35;;;;;;;23.15;15.65;;;0.60;99.90;;;;;;4917580;29;20074;-84
2022/11/21 08:21:02;;;;;;;23.92;16.15;;;0.60;99.90;;;;;;4918003;29;20044;-84
2022/11/21 08:23:28;;;;;;;23.80;15.95;;;0.60;99.90;;;;;;4917346;29;20040;-84
2022/11/21 08:25:53;;;;;;;24.48;16.65;;;0.60;99.90;;;;;;4918240;29;20058;-84
2022/11/21 08:28:19;;;;;;;23.77;16.00;;;0.60;99.90;;;;;;4916612;29;20452;-84
2022/11/21 08:30:44;;;;;;;24.48;16.17;;;0.60;99.90;;;;;;4915916;29;20139;-84
2022/11/21 08:33:10;;;;;;;23.40;15.80;;;0.60;99.90;;;;;;4917040;29;20507;-84
2022/11/21 08:35:39;;;;;;;23.98;16.23;;;0.60;99.90;;;;;;4917225;29;20052;-84
2022/11/21 08:38:05;;;;;;;27.23;16.13;;;0.60;99.90;;;;;;4918453;29;20044;-84
2022/11/21 08:40:31;;;;;;;24.52;16.27;;;0.60;99.90;;;;;;4916494;29;20063;-84
2022/11/21 08:42:58;;;;;;;25.13;16.10;;;0.60;99.90;;;;;;4916753;29;20044;-84
2022/11/21 08:45:24;;;;;;;24.90;16.73;;;0.60;99.90;;;;;;4917006;29;20059;-84
2022/11/21 08:47:51;;;;;;;26.33;15.93;;;0.70;99.90;;;;;;4918005;29;20047;-84
2022/11/21 08:50:17;;;;;;;25.33;16.48;;;0.70;99.90;;;;;;4918807;29;20060;-84
2022/11/21 08:52:43;;;;;;;26.15;16.42;;;0.70;99.90;;;;;;4918129;29;20052;-85
2022/11/21 08:55:09;;;;;;;26.17;16.67;;;0.70;99.90;;;;;;4916116;29;20099;-84
2022/11/21 08:57:41;;;;;;;23.00;15.48;;;0.70;99.90;;;;;;4917549;29;20092;-84
2022/11/21 09:00:11;;;;;;;26.73;16.40;;;0.80;99.90;;;;;;4915691;29;20040;-84
2022/11/21 09:02:37;;;;;;;24.27;16.73;;;0.80;99.90;;;;;;4916852;29;20442;-85
2022/11/21 09:05:02;;;;;;;26.08;17.40;;;0.90;99.90;;;;;;4917262;29;20040;-84
2022/11/21 09:07:28;;;;;;;26.02;16.63;;;0.90;99.90;;;;;;4916649;29;20083;-84
2022/11/21 09:09:54;;;;;;;25.55;17.33;;;0.90;99.90;;;;;;4917104;29;20050;-82
2022/11/21 09:12:19;;;;;;;25.33;15.60;;;0.90;99.90;;;;;;4916525;29;20048;-86
2022/11/21 09:20:14;;;;;;;25.50;16.08;;;1.00;99.90;;;;;;4914692;29;20052;-86
2022/11/21 09:22:39;;;;;;;25.02;16.00;;;1.10;99.90;;;;;;4917316;29;20048;-86
2022/11/21 09:25:05;;;;;;;26.10;17.42;;;1.10;99.90;;;;;;4916414;29;20040;-85
2022/11/21 09:27:31;;;;;;;23.55;16.45;;;1.10;99.90;;;;;;4918086;29;20400;-86
2022/11/21 09:29:56;;;;;;;22.60;15.75;;;1.10;99.90;;;;;;4917408;29;20048;-85
2022/11/21 09:32:22;;;;;;;26.55;16.00;;;1.10;99.90;;;;;;4915884;29;20044;-85
2022/11/21 09:34:48;;;;;;;24.83;16.05;;;1.20;99.90;;;;;;4915871;29;20044;-84
2022/11/21 09:37:14;;;;;;;24.95;16.30;;;1.20;99.90;;;;;;4916032;29;20055;-85
2022/11/21 09:39:39;;;;;;;23.23;15.77;;;1.20;99.90;;;;;;4915222;29;20095;-85
2022/11/21 09:42:46;;;;;;;26.23;17.35;;;1.20;99.90;;;;;;4915854;29;20051;-85
2022/11/21 09:45:22;;;;;;;24.17;16.02;;;1.30;99.90;;;;;;4933939;29;20040;-85
2022/11/21 09:47:50;;;;;;;24.05;15.55;;;1.30;99.90;;;;;;4917519;29;20060;-85
2022/11/21 09:50:33;;;;;;;23.42;16.02;;;1.30;99.90;;;;;;4916890;29;20052;-84
2022/11/21 09:53:33;;;;;;;26.60;16.00;;;1.30;99.90;;;;;;4917085;29;20060;-84
2022/11/21 09:56:04;;;;;;;21.10;14.75;;;1.40;99.90;;;;;;4895256;29;20381;-85
2022/11/21 09:58:42;;;;;;;26.05;15.77;;;1.40;99.90;;;;;;4915945;29;20162;-83
2022/11/21 10:01:15;;;;;;;23.05;15.48;;;1.50;99.90;;;;;;4915954;29;20048;-84
2022/11/21 10:03:44;;;;;;;27.05;16.60;;;1.40;99.90;;;;;;4915876;29;20043;-86
2022/11/21 10:06:19;;;;;;;24.77;16.33;;;1.50;99.90;;;;;;4915161;29;20058;-85
2022/11/21 10:08:56;;;;;;;23.95;16.13;;;1.50;99.90;;;;;;4915347;29;20148;-86
2022/11/21 10:12:35;;;;;;;22.77;15.07;;;1.60;99.90;;;;;;4916386;29;20052;-87
2022/11/21 10:14:47;;;;;;;23.43;15.33;;;1.60;99.90;;;;;;4914862;29;20052;-87
2022/11/21 10:17:16;;;;;;;25.00;15.95;;;1.60;99.90;;;;;;4919404;29;20059;-87
2022/11/21 10:20:20;;;;;;;22.50;15.48;;;1.60;99.90;;;;;;4920473;29;20048;-86
2022/11/21 10:23:00;;;;;;;26.20;17.23;;;1.60;99.90;;;;;;4913514;29;20114;-87
2022/11/21 10:25:42;;;;;;;23.17;15.52;;;1.60;99.90;;;;;;4920520;29;20436;-87
2022/11/21 10:28:14;;;;;;;24.98;16.08;;;1.70;99.90;;;;;;4920714;29;20373;-87
2022/11/21 10:30:42;;;;;;;24.95;16.02;;;1.70;99.90;;;;;;4918325;29;20040;-86
2022/11/21 10:33:17;;;;;;;24.80;15.98;;;1.70;99.90;;;;;;4918983;29;20067;-87
2022/11/21 10:35:56;;;;;;;25.60;17.08;;;1.70;99.90;;;;;;4919842;29;20052;-86
2022/11/21 10:38:28;;;;;;;25.65;16.08;;;1.80;99.90;;;;;;4919003;29;20048;-87
2022/11/21 10:41:06;;;;;;;23.23;15.48;;;1.80;99.90;;;;;;4919123;29;20563;-87
2022/11/21 10:46:22;;;;;;;21.33;13.88;;;1.90;99.90;;;;;;4919680;29;20048;-86
2022/11/21 10:49:01;;;;;;;21.60;14.05;;;1.90;99.90;;;;;;4920072;29;20044;-86
2022/11/21 10:51:48;;;;;;;18.67;13.43;;;1.90;99.90;;;;;;4919287;29;20069;-87
2022/11/21 10:54:35;;;;;;;20.80;14.35;;;2.00;99.90;;;;;;4908884;29;20129;-86
2022/11/21 10:57:00;;;;;;;21.33;14.02;;;2.00;99.90;;;;;;4899410;29;20059;-87
2022/11/21 10:59:27;;;;;;;20.40;13.93;;;2.10;99.90;;;;;;4916106;29;20048;-87
2022/11/21 11:01:56;;;;;;;20.40;13.50;;;2.10;99.90;;;;;;4919725;29;20165;-88
2022/11/21 11:04:21;;;;;;;21.42;13.60;;;2.10;99.90;;;;;;4918532;29;20040;-87
2022/11/21 11:06:47;;;;;;;20.58;13.45;;;2.20;99.90;;;;;;4918588;29;20055;-86
2022/11/21 11:09:31;;;;;;;18.52;12.98;;;2.20;99.90;;;;;;4920277;29;20040;-86
2022/11/21 11:12:20;;;;;;;20.30;13.60;;;2.30;99.90;;;;;;4919549;29;20052;-85
2022/11/21 11:14:54;;;;;;;19.30;12.88;;;2.30;99.90;;;;;;4913380;29;20047;-86
2022/11/21 11:17:31;;;;;;;19.02;12.80;;;2.30;99.90;;;;;;4918664;29;20036;-85
2022/11/21 11:20:06;;;;;;;17.83;11.90;;;2.30;99.90;;;;;;4911569;29;20048;-85
2022/11/21 11:22:32;;;;;;;20.15;13.27;;;2.40;99.90;;;;;;4906884;29;20063;-84
2022/11/21 11:24:58;;;;;;;16.30;11.75;;;2.40;99.90;;;;;;4918640;29;20052;-83
2022/11/21 11:27:28;;;;;;;18.83;12.68;;;2.40;99.90;;;;;;4918670;29;20087;-84
2022/11/21 11:29:53;;;;;;;18.25;12.82;;;2.50;99.90;;;;;;4918237;29;20104;-87
2022/11/21 11:32:20;;;;;;;18.77;13.00;;;2.50;99.90;;;;;;4918102;29;20052;-86
2022/11/21 11:35:24;;;;;;;17.90;12.18;;;2.50;99.90;;;;;;4928479;29;20056;-86
2022/11/21 11:38:02;;;;;;;18.52;12.20;;;2.50;99.90;;;;;;4912347;29;20500;-87
2022/11/21 11:40:41;;;;;;;17.35;12.07;;;2.50;99.90;;;;;;4917672;29;20127;-86
2022/11/21 11:49:02;;;;;;;18.02;12.52;;;2.70;99.90;;;;;;4917315;29;20052;-85
2022/11/21 11:51:36;;;;;;;18.83;12.82;;;2.70;99.90;;;;;;4917115;29;20126;-85
2022/11/21 11:54:31;;;;;;;19.67;13.32;;;2.70;99.90;;;;;;4916836;29;20506;-85
2022/11/21 11:56:58;;;;;;;18.77;12.48;;;2.80;99.90;;;;;;4918194;29;20131;-85
2022/11/21 11:59:38;;;;;;;19.15;13.68;;;2.80;99.90;;;;;;4918129;29;20048;-85
2022/11/21 12:02:06;;;;;;;19.23;13.30;;;2.80;99.90;;;;;;4917842;29;20078;-86
2022/11/21 12:04:40;;;;;;;20.13;13.43;;;2.80;99.90;;;;;;4917687;29;20044;-85
2022/11/21 12:07:24;;;;;;;20.10;13.57;;;2.80;99.90;;;;;;4917851;29;20800;-85
2022/11/21 12:10:13;;;;;;;18.95;13.57;;;2.80;99.90;;;;;;4917319;29;20052;-85
2022/11/21 12:12:42;;;;;;;18.67;13.45;;;2.90;99.90;;;;;;4918773;29;20088;-86
2022/11/21 12:18:19;;;;;;;18.15;12.23;;;2.90;99.90;;;;;;4918914;29;20073;-87
2022/11/21 12:21:03;;;;;;;18.80;12.52;;;2.90;99.90;;;;;;4915049;29;20508;-89
2022/11/21 12:23:35;;;;;;;17.83;12.65;;;2.90;99.90;;;;;;4916727;29;20488;-88
2022/11/21 12:26:19;;;;;;;18.83;12.75;;;2.90;99.90;;;;;;4917594;29;20052;-87
2022/11/21 12:28:53;;;;;;;19.85;14.02;;;3.00;99.90;;;;;;4916376;29;20036;-88
2022/11/21 12:31:43;;;;;;;18.95;12.57;;;3.00;99.90;;;;;;4918041;29;20133;-89
2022/11/21 12:34:21;;;;;;;19.23;13.32;;;3.00;99.90;;;;;;4917908;29;20048;-88
2022/11/21 12:37:03;;;;;;;18.58;12.40;;;3.00;99.90;;;;;;4916831;29;20389;-88
2022/11/21 12:39:52;;;;;;;22.42;14.23;;;3.10;99.90;;;;;;4916188;29;20052;-88
2022/11/21 12:42:48;;;;;;;20.30;14.02;;;3.10;99.90;;;;;;4917275;29;20496;-89
2022/11/21 12:45:45;;;;;;;21.10;14.18;;;3.10;99.90;;;;;;4917080;29;20471;-88
2022/11/21 12:54:30;;;;;;;19.02;12.38;;;3.20;99.90;;;;;;4916102;29;20468;-91
2022/11/21 12:57:04;;;;;;;22.48;14.80;;;3.30;99.90;;;;;;4896962;29;20091;-90
2022/11/21 12:59:37;;;;;;;23.98;15.80;;;3.30;99.90;;;;;;4898869;29;20087;-90
2022/11/21 13:02:11;;;;;;;25.88;16.42;;;3.30;99.90;;;;;;4897803;29;20131;-90
2022/11/21 13:04:39;;;;;;;21.85;14.98;;;3.30;99.90;;;;;;4897102;29;20060;-89
2022/11/21 13:07:06;;;;;;;22.98;14.80;;;3.40;99.90;;;;;;4909306;29;20051;-92
2022/11/21 13:09:40;;;;;;;21.70;14.55;;;3.40;99.90;;;;;;4917030;29;20048;-91
2022/11/21 13:12:17;;;;;;;23.05;15.15;;;3.40;99.90;;;;;;4917387;29;20048;-91
2022/11/21 13:14:51;;;;;;;20.70;14.10;;;3.50;99.90;;;;;;4916111;29;20083;-87
2022/11/21 13:17:26;;;;;;;23.50;14.70;;;3.50;99.90;;;;;;4914296;29;20050;-88